Pagina principale
METAR-TAF:

METAR-TAF

Aeroporti :

Bologna, Italia

Aeroporto di Bologna-Borgo Panigale

latitudine: 44-32N, longitudine: 011-18E, altezza: 36 m

Osservazione

Il bollettino è stato emesso 19 minuti fa, alle 13:20 UTC
Vento 6 kt da nord, variando fra ovest/nord-ovest e nord/nord-est
Temperature 16°C
Umidità 59%
Pressione 1012 hPa
Visibilità 10 km o più
Poco nuvoloso ad un'altezza di 2000 ft
Nuvoloso ad un'altezza di 5000 ft

METAR: LIPE 191320Z 35006KT 300V020 9999 FEW020 BKN050 16/08 Q1012

Ora: 15:39 (13:39 UTC)

Previsione

Il bollettino è stato emesso 2 ore e 39 minuti fa, alle 11:00 UTC
Previsione valida dal 19 alle 12 UTC al 20 alle 12 UTC
Vento 5 kt da direzioni variabili
Visibilità 10 km o più
Nuvoloso ad un'altezza di 2000 ft
Temporaneamente
dal 19 alle 12 UTC al 19 alle 18 UTC
pioggia

TAF: LIPE 191100Z 1912/2012 VRB05KT 9999 BKN020 TEMPO 1912/1918 RA

Osservazioni e previsioni meteorologiche di più di 4000 aeroporti (messaggi METAR e TAF).

Le stazioni disponibili sono rappresentate dai dischi gialli e rossi sulla carta.

Puntare il mouse per vedere il nome della stazione.

Clicca sopra per visualizzare le osservazioni e previsioni meteorologiche.

Per cambiare la mappa : fare clic sui pulsanti verdi con una croce nera per ingrandire, il pulsante verde con un trattino per diminuire, o sulla freccia verde per le mappe adiacenti.


METAR-TAF: